sensor_id;sensor_type;location;lat;lon;timestamp;pressure;altitude;pressure_sealevel;temperature;humidity
75788;BME280;64406;50.024;14.492;2023-05-19T00:00:14;98797.81;;;9.98;59.82
75788;BME280;64406;50.024;14.492;2023-05-19T00:03:00;98794.84;;;9.95;59.62
75788;BME280;64406;50.024;14.492;2023-05-19T00:05:28;98796.22;;;9.97;58.98
75788;BME280;64406;50.024;14.492;2023-05-19T00:07:58;98796.72;;;9.94;59.41
75788;BME280;64406;50.024;14.492;2023-05-19T00:10:24;98782.72;;;9.92;59.23
75788;BME280;64406;50.024;14.492;2023-05-19T00:12:54;98788.91;;;9.93;59.63
75788;BME280;64406;50.024;14.492;2023-05-19T00:15:21;98794.78;;;9.90;59.50
75788;BME280;64406;50.024;14.492;2023-05-19T00:17:46;98788.59;;;9.89;59.50
75788;BME280;64406;50.024;14.492;2023-05-19T00:20:13;98788.59;;;9.84;59.38
75788;BME280;64406;50.024;14.492;2023-05-19T00:22:40;98775.59;;;9.76;60.08
75788;BME280;64406;50.024;14.492;2023-05-19T00:25:09;98775.84;;;9.69;60.29
75788;BME280;64406;50.024;14.492;2023-05-19T00:27:34;98772.66;;;9.72;59.88
75788;BME280;64406;50.024;14.492;2023-05-19T00:30:00;98772.56;;;9.62;60.76
75788;BME280;64406;50.024;14.492;2023-05-19T00:32:25;98782.03;;;9.70;60.40
75788;BME280;64406;50.024;14.492;2023-05-19T00:34:51;98776.28;;;9.56;60.98
75788;BME280;64406;50.024;14.492;2023-05-19T00:37:17;98769.56;;;9.53;61.47
75788;BME280;64406;50.024;14.492;2023-05-19T00:39:42;98772.56;;;9.62;61.09
75788;BME280;64406;50.024;14.492;2023-05-19T00:42:08;98764.41;;;9.47;61.25
75788;BME280;64406;50.024;14.492;2023-05-19T00:44:39;98774.59;;;9.45;61.50
75788;BME280;64406;50.024;14.492;2023-05-19T00:47:05;98774.31;;;9.41;61.61
75788;BME280;64406;50.024;14.492;2023-05-19T00:49:31;98772.97;;;9.44;61.15
75788;BME280;64406;50.024;14.492;2023-05-19T00:51:56;98773.19;;;9.37;61.49
75788;BME280;64406;50.024;14.492;2023-05-19T00:54:23;98768.88;;;9.36;61.50
75788;BME280;64406;50.024;14.492;2023-05-19T00:56:49;98762.97;;;9.34;61.91
75788;BME280;64406;50.024;14.492;2023-05-19T00:59:15;98766.13;;;9.26;61.54
75788;BME280;64406;50.024;14.492;2023-05-19T01:01:41;98765.56;;;9.24;62.17
75788;BME280;64406;50.024;14.492;2023-05-19T01:04:07;98769.88;;;9.25;62.07
75788;BME280;64406;50.024;14.492;2023-05-19T01:06:35;98766.06;;;9.21;61.67
75788;BME280;64406;50.024;14.492;2023-05-19T01:09:03;98759.59;;;9.17;62.35
75788;BME280;64406;50.024;14.492;2023-05-19T01:11:28;98759.31;;;9.13;62.25
75788;BME280;64406;50.024;14.492;2023-05-19T01:13:54;98762.69;;;9.04;62.94
75788;BME280;64406;50.024;14.492;2023-05-19T01:16:28;98764.06;;;9.06;62.43
75788;BME280;64406;50.024;14.492;2023-05-19T01:22:22;98768.84;;;8.99;63.09
75788;BME280;64406;50.024;14.492;2023-05-19T01:27:57;98761.84;;;8.98;63.37
75788;BME280;64406;50.024;14.492;2023-05-19T01:30:33;98760.41;;;8.90;62.98
75788;BME280;64406;50.024;14.492;2023-05-19T01:33:02;98764.38;;;8.83;63.70
75788;BME280;64406;50.024;14.492;2023-05-19T01:35:29;98757.66;;;8.80;63.77
75788;BME280;64406;50.024;14.492;2023-05-19T01:37:57;98756.03;;;8.79;63.89
75788;BME280;64406;50.024;14.492;2023-05-19T01:40:24;98758.47;;;8.81;64.20
75788;BME280;64406;50.024;14.492;2023-05-19T01:42:53;98762.69;;;8.71;64.73
75788;BME280;64406;50.024;14.492;2023-05-19T01:45:19;98764.28;;;8.73;65.06
75788;BME280;64406;50.024;14.492;2023-05-19T01:47:46;98764.31;;;8.78;64.51
75788;BME280;64406;50.024;14.492;2023-05-19T01:50:12;98766.78;;;8.79;64.73
75788;BME280;64406;50.024;14.492;2023-05-19T01:52:38;98770.00;;;8.81;64.85
75788;BME280;64406;50.024;14.492;2023-05-19T01:55:04;98771.56;;;8.77;64.61
75788;BME280;64406;50.024;14.492;2023-05-19T01:58:08;98763.78;;;8.76;65.29
75788;BME280;64406;50.024;14.492;2023-05-19T02:06:26;98757.13;;;8.83;64.31
75788;BME280;64406;50.024;14.492;2023-05-19T02:09:33;98767.59;;;8.80;64.99
75788;BME280;64406;50.024;14.492;2023-05-19T02:14:39;98758.47;;;8.81;65.20
75788;BME280;64406;50.024;14.492;2023-05-19T02:17:05;98756.31;;;8.83;64.87
75788;BME280;64406;50.024;14.492;2023-05-19T02:19:36;98756.06;;;8.84;64.72
75788;BME280;64406;50.024;14.492;2023-05-19T02:22:03;98745.03;;;8.81;65.14
75788;BME280;64406;50.024;14.492;2023-05-19T02:24:28;98768.34;;;8.75;66.11
75788;BME280;64406;50.024;14.492;2023-05-19T02:26:54;98761.34;;;8.74;65.53
75788;BME280;64406;50.024;14.492;2023-05-19T02:29:20;98758.41;;;8.76;65.91
75788;BME280;64406;50.024;14.492;2023-05-19T02:31:46;98750.81;;;8.67;65.99
75788;BME280;64406;50.024;14.492;2023-05-19T02:34:11;98756.66;;;8.64;66.19
75788;BME280;64406;50.024;14.492;2023-05-19T02:36:39;98736.72;;;8.55;66.94
75788;BME280;64406;50.024;14.492;2023-05-19T02:39:08;98744.63;;;8.40;66.65
75788;BME280;64406;50.024;14.492;2023-05-19T02:41:34;98745.97;;;8.42;66.57
75788;BME280;64406;50.024;14.492;2023-05-19T02:43:59;98738.97;;;8.20;67.73
75788;BME280;64406;50.024;14.492;2023-05-19T02:46:25;98743.47;;;8.14;68.34
75788;BME280;64406;50.024;14.492;2023-05-19T02:48:52;98747.06;;;8.03;68.48
75788;BME280;64406;50.024;14.492;2023-05-19T02:51:17;98740.75;;;7.92;68.78
75788;BME280;64406;50.024;14.492;2023-05-19T02:53:43;98741.72;;;7.81;69.32
75788;BME280;64406;50.024;14.492;2023-05-19T02:56:09;98734.50;;;7.64;69.74
75788;BME280;64406;50.024;14.492;2023-05-19T02:58:34;98739.22;;;7.57;70.49
75788;BME280;64406;50.024;14.492;2023-05-19T03:01:00;98739.72;;;7.54;70.61
75788;BME280;64406;50.024;14.492;2023-05-19T03:03:25;98737.94;;;7.43;71.08
75788;BME280;64406;50.024;14.492;2023-05-19T03:05:51;98736.25;;;7.37;70.65
75788;BME280;64406;50.024;14.492;2023-05-19T03:08:18;98727.31;;;7.31;71.09
75788;BME280;64406;50.024;14.492;2023-05-19T03:10:47;98729.75;;;7.16;71.69
75788;BME280;64406;50.024;14.492;2023-05-19T03:13:12;98724.06;;;7.13;71.28
75788;BME280;64406;50.024;14.492;2023-05-19T03:15:38;98726.34;;;7.04;71.43
75788;BME280;64406;50.024;14.492;2023-05-19T03:18:04;98728.72;;;7.00;71.88
75788;BME280;64406;50.024;14.492;2023-05-19T03:20:30;98733.25;;;7.00;72.18
75788;BME280;64406;50.024;14.492;2023-05-19T03:22:56;98737.78;;;6.99;72.31
75788;BME280;64406;50.024;14.492;2023-05-19T03:25:22;98731.22;;;7.07;72.17
75788;BME280;64406;50.024;14.492;2023-05-19T03:27:48;98737.47;;;7.13;72.08
75788;BME280;64406;50.024;14.492;2023-05-19T03:30:14;98737.53;;;7.18;71.99
75788;BME280;64406;50.024;14.492;2023-05-19T03:32:39;98740.16;;;7.29;71.50
75788;BME280;64406;50.024;14.492;2023-05-19T03:35:06;98738.13;;;7.36;71.58
75788;BME280;64406;50.024;14.492;2023-05-19T03:37:31;98740.88;;;7.42;71.50
75788;BME280;64406;50.024;14.492;2023-05-19T03:39:58;98741.00;;;7.52;70.53
75788;BME280;64406;50.024;14.492;2023-05-19T03:42:23;98749.28;;;7.67;69.71
75788;BME280;64406;50.024;14.492;2023-05-19T03:44:49;98738.94;;;7.76;69.91
75788;BME280;64406;50.024;14.492;2023-05-19T03:47:15;98732.44;;;7.72;69.88
75788;BME280;64406;50.024;14.492;2023-05-19T03:49:41;98740.09;;;7.80;69.54
75788;BME280;64406;50.024;14.492;2023-05-19T03:52:06;98737.78;;;7.88;69.34
75788;BME280;64406;50.024;14.492;2023-05-19T03:54:32;98739.47;;;7.95;69.81
75788;BME280;64406;50.024;14.492;2023-05-19T03:56:57;98734.00;;;8.06;69.23
75788;BME280;64406;50.024;14.492;2023-05-19T03:59:27;98729.47;;;8.12;68.47
75788;BME280;64406;50.024;14.492;2023-05-19T04:01:52;98731.84;;;8.08;68.89
75788;BME280;64406;50.024;14.492;2023-05-19T04:04:18;98722.94;;;8.03;68.67
75788;BME280;64406;50.024;14.492;2023-05-19T04:06:45;98726.59;;;7.97;68.76
75788;BME280;64406;50.024;14.492;2023-05-19T04:09:12;98732.16;;;7.90;68.94
75788;BME280;64406;50.024;14.492;2023-05-19T04:11:39;98732.34;;;7.83;69.96
75788;BME280;64406;50.024;14.492;2023-05-19T04:14:05;98737.69;;;7.83;69.67
75788;BME280;64406;50.024;14.492;2023-05-19T04:16:31;98731.72;;;7.76;70.60
75788;BME280;64406;50.024;14.492;2023-05-19T04:18:57;98732.78;;;7.75;69.92
75788;BME280;64406;50.024;14.492;2023-05-19T04:21:22;98735.13;;;7.72;70.35
75788;BME280;64406;50.024;14.492;2023-05-19T04:23:48;98744.31;;;7.76;70.04
75788;BME280;64406;50.024;14.492;2023-05-19T04:26:14;98741.88;;;7.74;70.10
75788;BME280;64406;50.024;14.492;2023-05-19T04:28:40;98741.88;;;7.74;70.97
75788;BME280;64406;50.024;14.492;2023-05-19T04:31:09;98736.19;;;7.71;71.05
75788;BME280;64406;50.024;14.492;2023-05-19T04:33:38;98738.56;;;7.67;71.63
75788;BME280;64406;50.024;14.492;2023-05-19T04:36:04;98743.97;;;7.72;70.53
75788;BME280;64406;50.024;14.492;2023-05-19T04:38:33;98743.56;;;7.80;70.04
75788;BME280;64406;50.024;14.492;2023-05-19T04:40:59;98743.13;;;7.88;69.74
75788;BME280;64406;50.024;14.492;2023-05-19T04:43:26;98735.91;;;7.89;70.78
75788;BME280;64406;50.024;14.492;2023-05-19T04:45:53;98748.63;;;7.99;69.73
75788;BME280;64406;50.024;14.492;2023-05-19T04:48:19;98747.63;;;8.05;70.02
75788;BME280;64406;50.024;14.492;2023-05-19T04:50:47;98743.16;;;8.10;69.40
75788;BME280;64406;50.024;14.492;2023-05-19T04:53:14;98744.72;;;8.06;69.46
75788;BME280;64406;50.024;14.492;2023-05-19T04:55:40;98747.06;;;8.03;69.83
75788;BME280;64406;50.024;14.492;2023-05-19T04:58:05;98751.44;;;8.09;70.29
75788;BME280;64406;50.024;14.492;2023-05-19T05:00:31;98747.78;;;8.15;69.34
75788;BME280;64406;50.024;14.492;2023-05-19T05:03:00;98744.56;;;8.18;69.83
75788;BME280;64406;50.024;14.492;2023-05-19T05:05:29;98746.31;;;8.29;69.24
75788;BME280;64406;50.024;14.492;2023-05-19T05:07:55;98746.50;;;8.39;69.28
75788;BME280;64406;50.024;14.492;2023-05-19T05:10:21;98743.53;;;8.41;68.69
75788;BME280;64406;50.024;14.492;2023-05-19T05:12:48;98742.28;;;8.49;68.89
75788;BME280;64406;50.024;14.492;2023-05-19T05:15:14;98746.94;;;8.58;68.56
75788;BME280;64406;50.024;14.492;2023-05-19T05:17:40;98738.34;;;8.56;68.49
75788;BME280;64406;50.024;14.492;2023-05-19T05:20:06;98736.66;;;8.50;68.00
75788;BME280;64406;50.024;14.492;2023-05-19T05:22:32;98732.66;;;8.53;67.60
75788;BME280;64406;50.024;14.492;2023-05-19T05:25:00;98736.09;;;8.48;68.71
75788;BME280;64406;50.024;14.492;2023-05-19T05:27:26;98734.69;;;8.40;68.51
75788;BME280;64406;50.024;14.492;2023-05-19T05:29:52;98737.13;;;8.25;69.54
75788;BME280;64406;50.024;14.492;2023-05-19T05:32:18;98737.72;;;8.27;69.54
75788;BME280;64406;50.024;14.492;2023-05-19T05:34:44;98739.88;;;8.30;69.48
75788;BME280;64406;50.024;14.492;2023-05-19T05:37:10;98725.72;;;8.35;70.04
75788;BME280;64406;50.024;14.492;2023-05-19T05:39:35;98727.97;;;8.43;69.45
75788;BME280;64406;50.024;14.492;2023-05-19T05:42:01;98727.31;;;8.53;69.06
75788;BME280;64406;50.024;14.492;2023-05-19T05:44:27;98724.25;;;8.71;68.76
75788;BME280;64406;50.024;14.492;2023-05-19T05:46:53;98730.88;;;8.90;67.33
75788;BME280;64406;50.024;14.492;2023-05-19T05:49:18;98722.38;;;8.98;67.35
75788;BME280;64406;50.024;14.492;2023-05-19T05:51:45;98726.13;;;9.03;67.87
75788;BME280;64406;50.024;14.492;2023-05-19T05:54:11;98724.56;;;9.07;67.32
75788;BME280;64406;50.024;14.492;2023-05-19T05:56:37;98718.25;;;9.23;66.28
75788;BME280;64406;50.024;14.492;2023-05-19T05:59:03;98724.72;;;9.27;66.42
75788;BME280;64406;50.024;14.492;2023-05-19T06:01:30;98722.59;;;9.29;66.63
75788;BME280;64406;50.024;14.492;2023-05-19T06:03:55;98715.31;;;9.24;66.32
75788;BME280;64406;50.024;14.492;2023-05-19T06:06:21;98722.84;;;9.27;67.36
75788;BME280;64406;50.024;14.492;2023-05-19T06:08:47;98722.31;;;9.31;66.22
75788;BME280;64406;50.024;14.492;2023-05-19T06:11:12;98719.41;;;9.37;65.52
75788;BME280;64406;50.024;14.492;2023-05-19T06:13:38;98724.09;;;9.52;65.06
75788;BME280;64406;50.024;14.492;2023-05-19T06:16:06;98737.72;;;9.40;65.84
75788;BME280;64406;50.024;14.492;2023-05-19T06:18:31;98718.94;;;9.45;65.93
75788;BME280;64406;50.024;14.492;2023-05-19T06:20:57;98727.16;;;9.66;64.31
75788;BME280;64406;50.024;14.492;2023-05-19T06:23:23;98725.31;;;9.76;62.92
75788;BME280;64406;50.024;14.492;2023-05-19T06:25:49;98727.19;;;9.76;63.75
75788;BME280;64406;50.024;14.492;2023-05-19T06:28:15;98724.25;;;9.77;63.77
75788;BME280;64406;50.024;14.492;2023-05-19T06:30:40;98728.09;;;9.92;63.88
75788;BME280;64406;50.024;14.492;2023-05-19T06:33:06;98734.00;;;9.94;64.03
75788;BME280;64406;50.024;14.492;2023-05-19T06:35:32;98736.19;;;10.02;64.22
75788;BME280;64406;50.024;14.492;2023-05-19T06:37:57;98730.84;;;10.07;64.16
75788;BME280;64406;50.024;14.492;2023-05-19T06:40:23;98731.16;;;10.21;63.56
75788;BME280;64406;50.024;14.492;2023-05-19T06:42:49;98727.44;;;10.27;62.59
75788;BME280;64406;50.024;14.492;2023-05-19T06:45:15;98728.56;;;10.31;62.54
75788;BME280;64406;50.024;14.492;2023-05-19T06:47:40;98731.00;;;10.38;62.40
75788;BME280;64406;50.024;14.492;2023-05-19T06:50:08;98735.31;;;10.39;62.82
75788;BME280;64406;50.024;14.492;2023-05-19T06:52:33;98736.41;;;10.48;61.59
75788;BME280;64406;50.024;14.492;2023-05-19T06:55:00;98730.22;;;10.52;62.13
75788;BME280;64406;50.024;14.492;2023-05-19T06:57:25;98738.31;;;10.62;62.62
75788;BME280;64406;50.024;14.492;2023-05-19T06:59:51;98739.44;;;10.72;61.67
75788;BME280;64406;50.024;14.492;2023-05-19T07:02:16;98742.16;;;10.77;62.01
75788;BME280;64406;50.024;14.492;2023-05-19T07:04:42;98746.44;;;10.78;61.60
75788;BME280;64406;50.024;14.492;2023-05-19T07:07:09;98747.28;;;10.83;60.81
75788;BME280;64406;50.024;14.492;2023-05-19T07:09:34;98744.31;;;11.00;60.85
75788;BME280;64406;50.024;14.492;2023-05-19T07:12:00;98748.34;;;11.08;60.78
75788;BME280;64406;50.024;14.492;2023-05-19T07:14:26;98744.31;;;11.15;59.41
75788;BME280;64406;50.024;14.492;2023-05-19T07:16:51;98734.38;;;11.16;59.42
75788;BME280;64406;50.024;14.492;2023-05-19T07:19:17;98729.75;;;11.22;59.63
75788;BME280;64406;50.024;14.492;2023-05-19T07:21:46;98738.66;;;11.32;59.56
75788;BME280;64406;50.024;14.492;2023-05-19T07:24:12;98735.97;;;11.42;60.45
75788;BME280;64406;50.024;14.492;2023-05-19T07:26:39;98746.72;;;11.53;57.89
75788;BME280;64406;50.024;14.492;2023-05-19T07:29:04;98742.66;;;11.55;57.96
75788;BME280;64406;50.024;14.492;2023-05-19T07:31:30;98745.66;;;11.64;57.86
75788;BME280;64406;50.024;14.492;2023-05-19T07:33:57;98751.31;;;11.62;58.39
75788;BME280;64406;50.024;14.492;2023-05-19T07:36:23;98748.59;;;11.67;57.45
75788;BME280;64406;50.024;14.492;2023-05-19T07:38:48;98752.91;;;11.74;55.48
75788;BME280;64406;50.024;14.492;2023-05-19T07:41:14;98744.03;;;11.63;56.54
75788;BME280;64406;50.024;14.492;2023-05-19T07:43:41;98741.84;;;11.70;58.10
75788;BME280;64406;50.024;14.492;2023-05-19T07:46:06;98748.03;;;11.91;58.89
75788;BME280;64406;50.024;14.492;2023-05-19T07:48:32;98737.25;;;11.96;57.08
75788;BME280;64406;50.024;14.492;2023-05-19T07:50:58;98734.78;;;11.94;55.61
75788;BME280;64406;50.024;14.492;2023-05-19T07:53:24;98742.59;;;12.06;55.09
75788;BME280;64406;50.024;14.492;2023-05-19T07:55:49;98734.47;;;12.16;54.82
75788;BME280;64406;50.024;14.492;2023-05-19T07:58:15;98735.78;;;12.24;54.20
75788;BME280;64406;50.024;14.492;2023-05-19T08:00:41;98737.41;;;12.15;54.55
75788;BME280;64406;50.024;14.492;2023-05-19T08:03:08;98736.31;;;12.26;55.66
75788;BME280;64406;50.024;14.492;2023-05-19T08:05:34;98740.06;;;12.30;55.13
75788;BME280;64406;50.024;14.492;2023-05-19T08:08:01;98745.47;;;12.30;55.44
75788;BME280;64406;50.024;14.492;2023-05-19T08:10:27;98741.59;;;12.46;55.75
75788;BME280;64406;50.024;14.492;2023-05-19T08:12:53;98732.81;;;12.75;53.92
75788;BME280;64406;50.024;14.492;2023-05-19T08:15:18;98722.88;;;12.99;52.97
75788;BME280;64406;50.024;14.492;2023-05-19T08:17:44;98730.56;;;13.26;52.17
75788;BME280;64406;50.024;14.492;2023-05-19T08:20:10;98715.28;;;13.41;50.96
75788;BME280;64406;50.024;14.492;2023-05-19T08:22:39;98721.72;;;13.45;51.72
75788;BME280;64406;50.024;14.492;2023-05-19T08:25:04;98723.44;;;13.36;53.09
75788;BME280;64406;50.024;14.492;2023-05-19T08:27:34;98722.09;;;13.33;53.13
75788;BME280;64406;50.024;14.492;2023-05-19T08:29:59;98718.06;;;13.30;52.81
75788;BME280;64406;50.024;14.492;2023-05-19T08:32:25;98722.22;;;13.23;52.39
75788;BME280;64406;50.024;14.492;2023-05-19T08:34:51;98711.72;;;13.11;53.52
75788;BME280;64406;50.024;14.492;2023-05-19T08:37:16;98702.50;;;13.12;53.70
75788;BME280;64406;50.024;14.492;2023-05-19T08:39:42;98707.91;;;13.12;52.54
75788;BME280;64406;50.024;14.492;2023-05-19T08:42:08;98711.09;;;13.24;53.16
75788;BME280;64406;50.024;14.492;2023-05-19T08:44:35;98715.75;;;13.14;52.35
75788;BME280;64406;50.024;14.492;2023-05-19T08:47:03;98711.06;;;13.29;51.46
75788;BME280;64406;50.024;14.492;2023-05-19T08:49:42;98704.56;;;13.30;51.48
75788;BME280;64406;50.024;14.492;2023-05-19T08:55:06;98699.94;;;13.31;52.56
75788;BME280;64406;50.024;14.492;2023-05-19T08:57:35;98700.88;;;13.45;52.30
75788;BME280;64406;50.024;14.492;2023-05-19T09:00:02;98691.41;;;13.48;50.37
75788;BME280;64406;50.024;14.492;2023-05-19T09:02:37;98701.66;;;13.51;51.65
75788;BME280;64406;50.024;14.492;2023-05-19T09:05:04;98689.63;;;13.62;50.29
75788;BME280;64406;50.024;14.492;2023-05-19T09:07:30;98691.53;;;13.62;51.35
75788;BME280;64406;50.024;14.492;2023-05-19T09:09:59;98691.25;;;13.63;52.19
75788;BME280;64406;50.024;14.492;2023-05-19T09:12:26;98697.03;;;13.80;51.92
75788;BME280;64406;50.024;14.492;2023-05-19T09:14:52;98688.47;;;13.92;52.17
75788;BME280;64406;50.024;14.492;2023-05-19T09:17:18;98687.84;;;14.00;51.11
75788;BME280;64406;50.024;14.492;2023-05-19T09:19:44;98682.81;;;14.12;50.71
75788;BME280;64406;50.024;14.492;2023-05-19T09:22:15;98685.59;;;14.07;51.21
75788;BME280;64406;50.024;14.492;2023-05-19T09:24:41;98680.75;;;14.04;51.25
75788;BME280;64406;50.024;14.492;2023-05-19T09:27:06;98675.88;;;14.25;51.05
75788;BME280;64406;50.024;14.492;2023-05-19T09:29:32;98682.88;;;14.69;49.88
75788;BME280;64406;50.024;14.492;2023-05-19T09:31:58;98677.03;;;15.13;50.43
75788;BME280;64406;50.024;14.492;2023-05-19T09:34:29;98680.97;;;16.09;47.51
75788;BME280;64406;50.024;14.492;2023-05-19T09:36:55;98681.00;;;16.58;46.12
75788;BME280;64406;50.024;14.492;2023-05-19T09:39:22;98673.63;;;16.59;45.70
75788;BME280;64406;50.024;14.492;2023-05-19T09:41:52;98676.88;;;16.83;44.89
75788;BME280;64406;50.024;14.492;2023-05-19T09:44:22;98678.44;;;16.76;45.74
75788;BME280;64406;50.024;14.492;2023-05-19T09:46:50;98668.63;;;17.11;45.05
75788;BME280;64406;50.024;14.492;2023-05-19T09:49:23;98663.47;;;17.09;43.94
75788;BME280;64406;50.024;14.492;2023-05-19T09:51:53;98662.00;;;17.34;44.15
75788;BME280;64406;50.024;14.492;2023-05-19T09:54:20;98667.03;;;17.41;44.05
75788;BME280;64406;50.024;14.492;2023-05-19T09:59:25;98659.56;;;17.55;43.84
75788;BME280;64406;50.024;14.492;2023-05-19T10:01:53;98659.91;;;17.93;42.77
75788;BME280;64406;50.024;14.492;2023-05-19T10:04:19;98670.25;;;18.31;42.23
75788;BME280;64406;50.024;14.492;2023-05-19T10:06:47;98666.75;;;18.57;41.97
75788;BME280;64406;50.024;14.492;2023-05-19T10:09:22;98665.97;;;18.56;42.36
75788;BME280;64406;50.024;14.492;2023-05-19T10:11:56;98655.66;;;18.62;41.90
75788;BME280;64406;50.024;14.492;2023-05-19T10:14:25;98658.28;;;18.76;42.94
75788;BME280;64406;50.024;14.492;2023-05-19T10:16:53;98660.00;;;18.54;42.24
75788;BME280;64406;50.024;14.492;2023-05-19T10:19:20;98645.66;;;18.14;42.87
75788;BME280;64406;50.024;14.492;2023-05-19T10:21:47;98649.31;;;17.92;43.42
75788;BME280;64406;50.024;14.492;2023-05-19T10:24:14;98652.38;;;17.90;43.89
75788;BME280;64406;50.024;14.492;2023-05-19T10:26:44;98642.25;;;17.91;43.96
75788;BME280;64406;50.024;14.492;2023-05-19T10:29:14;98646.72;;;17.87;43.87
75788;BME280;64406;50.024;14.492;2023-05-19T10:31:42;98649.09;;;17.49;45.34
75788;BME280;64406;50.024;14.492;2023-05-19T10:34:22;98641.16;;;17.30;45.20
75788;BME280;64406;50.024;14.492;2023-05-19T10:36:58;98633.03;;;17.70;45.86
75788;BME280;64406;50.024;14.492;2023-05-19T10:39:33;98638.78;;;17.68;44.92
75788;BME280;64406;50.024;14.492;2023-05-19T10:45:08;98634.78;;;17.65;45.02
75788;BME280;64406;50.024;14.492;2023-05-19T10:47:40;98642.78;;;18.10;43.40
75788;BME280;64406;50.024;14.492;2023-05-19T10:50:06;98634.31;;;18.38;42.94
75788;BME280;64406;50.024;14.492;2023-05-19T10:52:36;98637.41;;;18.71;43.08
75788;BME280;64406;50.024;14.492;2023-05-19T10:55:02;98640.50;;;19.34;41.68
75788;BME280;64406;50.024;14.492;2023-05-19T10:57:29;98631.22;;;19.26;41.75
75788;BME280;64406;50.024;14.492;2023-05-19T11:00:01;98627.34;;;19.27;41.12
75788;BME280;64406;50.024;14.492;2023-05-19T11:02:40;98633.78;;;19.31;41.62
75788;BME280;64406;50.024;14.492;2023-05-19T11:05:13;98637.38;;;19.70;40.41
75788;BME280;64406;50.024;14.492;2023-05-19T11:07:41;98630.84;;;20.13;39.55
75788;BME280;64406;50.024;14.492;2023-05-19T11:10:10;98641.00;;;19.82;41.01
75788;BME280;64406;50.024;14.492;2023-05-19T11:12:40;98629.16;;;19.99;40.28
75788;BME280;64406;50.024;14.492;2023-05-19T11:15:10;98636.81;;;20.35;40.55
75788;BME280;64406;50.024;14.492;2023-05-19T11:17:36;98627.28;;;20.21;40.77
75788;BME280;64406;50.024;14.492;2023-05-19T11:20:07;98625.50;;;20.46;39.91
75788;BME280;64406;50.024;14.492;2023-05-19T11:22:33;98626.94;;;20.85;40.27
75788;BME280;64406;50.024;14.492;2023-05-19T11:25:00;98620.72;;;20.97;39.52
75788;BME280;64406;50.024;14.492;2023-05-19T11:27:33;98628.38;;;20.70;39.90
75788;BME280;64406;50.024;14.492;2023-05-19T11:32:32;98617.97;;;20.63;39.93
75788;BME280;64406;50.024;14.492;2023-05-19T11:34:59;98616.78;;;20.23;41.18
75788;BME280;64406;50.024;14.492;2023-05-19T11:37:26;98616.09;;;20.05;41.46
75788;BME280;64406;50.024;14.492;2023-05-19T11:39:53;98616.97;;;19.97;41.34
75788;BME280;64406;50.024;14.492;2023-05-19T11:42:19;98609.88;;;19.96;41.73
75788;BME280;64406;50.024;14.492;2023-05-19T11:44:44;98610.38;;;20.40;41.82
75788;BME280;64406;50.024;14.492;2023-05-19T11:47:15;98625.97;;;20.48;40.67
75788;BME280;64406;50.024;14.492;2023-05-19T11:49:46;98610.13;;;20.32;40.75
75788;BME280;64406;50.024;14.492;2023-05-19T11:52:13;98613.44;;;20.68;41.03
75788;BME280;64406;50.024;14.492;2023-05-19T11:54:39;98612.31;;;20.18;41.30
75788;BME280;64406;50.024;14.492;2023-05-19T11:57:08;98606.72;;;20.15;41.08
75788;BME280;64406;50.024;14.492;2023-05-19T11:59:36;98600.28;;;19.90;41.83
75788;BME280;64406;50.024;14.492;2023-05-19T12:04:49;98608.00;;;19.58;43.20
75788;BME280;64406;50.024;14.492;2023-05-19T12:07:16;98615.75;;;19.39;42.99
75788;BME280;64406;50.024;14.492;2023-05-19T12:09:43;98603.63;;;19.57;42.82
75788;BME280;64406;50.024;14.492;2023-05-19T12:12:15;98608.22;;;19.36;43.82
75788;BME280;64406;50.024;14.492;2023-05-19T12:14:42;98605.75;;;18.61;44.69
75788;BME280;64406;50.024;14.492;2023-05-19T12:17:16;98606.41;;;18.84;44.52
75788;BME280;64406;50.024;14.492;2023-05-19T12:19:42;98611.25;;;18.70;44.38
75788;BME280;64406;50.024;14.492;2023-05-19T12:22:09;98621.47;;;18.21;45.34
75788;BME280;64406;50.024;14.492;2023-05-19T12:24:36;98622.63;;;18.37;45.25
75788;BME280;64406;50.024;14.492;2023-05-19T12:27:15;98621.81;;;18.45;45.77
75788;BME280;64406;50.024;14.492;2023-05-19T12:29:41;98613.31;;;18.38;45.45
75788;BME280;64406;50.024;14.492;2023-05-19T12:32:07;98614.59;;;18.32;45.80
75788;BME280;64406;50.024;14.492;2023-05-19T12:34:37;98608.28;;;18.06;46.23
75788;BME280;64406;50.024;14.492;2023-05-19T12:37:03;98610.38;;;18.09;46.86
75788;BME280;64406;50.024;14.492;2023-05-19T12:39:29;98612.19;;;18.39;46.15
75788;BME280;64406;50.024;14.492;2023-05-19T12:42:08;98610.41;;;18.87;46.22
75788;BME280;64406;50.024;14.492;2023-05-19T12:44:41;98603.63;;;19.01;44.45
75788;BME280;64406;50.024;14.492;2023-05-19T12:47:08;98606.03;;;19.12;44.92
75788;BME280;64406;50.024;14.492;2023-05-19T12:49:33;98596.03;;;19.24;44.44
75788;BME280;64406;50.024;14.492;2023-05-19T12:52:02;98598.44;;;19.26;44.54
75788;BME280;64406;50.024;14.492;2023-05-19T12:54:34;98605.31;;;19.32;44.06
75788;BME280;64406;50.024;14.492;2023-05-19T12:57:00;98604.78;;;18.92;44.86
75788;BME280;64406;50.024;14.492;2023-05-19T12:59:25;98587.25;;;19.10;44.84
75788;BME280;64406;50.024;14.492;2023-05-19T13:01:57;98602.81;;;19.65;43.91
75788;BME280;64406;50.024;14.492;2023-05-19T13:04:24;98599.63;;;20.14;42.74
75788;BME280;64406;50.024;14.492;2023-05-19T13:06:51;98599.28;;;21.68;39.44
75788;BME280;64406;50.024;14.492;2023-05-19T13:09:17;98607.00;;;20.22;42.25
75788;BME280;64406;50.024;14.492;2023-05-19T13:11:45;98605.81;;;19.81;42.95
75788;BME280;64406;50.024;14.492;2023-05-19T13:14:16;98602.09;;;19.39;43.94
75788;BME280;64406;50.024;14.492;2023-05-19T13:16:44;98603.06;;;19.34;44.09
75788;BME280;64406;50.024;14.492;2023-05-19T13:19:16;98597.47;;;19.31;44.37
75788;BME280;64406;50.024;14.492;2023-05-19T13:21:42;98595.31;;;18.98;44.46
75788;BME280;64406;50.024;14.492;2023-05-19T13:24:08;98589.88;;;18.81;45.17